Time;durP1;ratioP1;P1;durP2;ratioP2;P2;SDS_P1;SDS_P2;PMS_P1;PMS_P2;Temp;Humidity;BMP_temperature;BMP_pressure;BME280_temperature;BME280_humidity;BME280_pressure;Samples;Min_cycle;Max_cycle;Signal;HPM_P1;HPM_P2
2023/08/04 00:01:19;;;;;;;8.57;4.13;;;15.60;99.90;;;;;;5022335;28;20411;-71
2023/08/04 00:03:47;;;;;;;6.40;3.80;;;15.60;99.90;;;;;;5029395;28;20442;-69
2023/08/04 00:06:14;;;;;;;6.68;3.63;;;15.60;99.90;;;;;;5031829;28;20446;-69
2023/08/04 00:08:41;;;;;;;8.40;4.00;;;15.60;99.90;;;;;;5026334;28;20439;-69
2023/08/04 00:11:07;;;;;;;7.22;3.63;;;15.60;99.90;;;;;;5031183;28;20453;-68
2023/08/04 00:13:34;;;;;;;6.65;3.70;;;15.60;99.90;;;;;;5031359;28;20411;-70
2023/08/04 00:16:08;;;;;;;9.10;4.00;;;15.60;99.90;;;;;;5027706;28;20421;-68
2023/08/04 00:18:35;;;;;;;7.47;3.75;;;15.60;99.90;;;;;;5031245;28;20793;-68
2023/08/04 00:21:03;;;;;;;7.00;3.70;;;15.50;99.90;;;;;;5030004;28;20414;-69
2023/08/04 00:23:30;;;;;;;8.82;4.40;;;15.60;99.90;;;;;;5030936;28;20415;-69
2023/08/04 00:28:30;;;;;;;5.40;3.85;;;15.50;99.90;;;;;;5093482;28;20441;-67
2023/08/04 00:30:57;;;;;;;7.05;3.50;;;15.50;99.90;;;;;;5104985;28;20400;-68
2023/08/04 00:33:24;;;;;;;6.57;3.60;;;15.50;99.90;;;;;;5101066;28;20428;-67
2023/08/04 00:35:51;;;;;;;6.03;3.10;;;15.50;99.90;;;;;;5097551;28;20429;-67
2023/08/04 00:38:19;;;;;;;4.65;3.10;;;15.50;99.90;;;;;;5106649;27;20415;-67
2023/08/04 00:40:45;;;;;;;6.35;2.90;;;15.50;99.90;;;;;;5107301;27;20940;-67
2023/08/04 00:43:13;;;;;;;9.55;4.00;;;15.50;99.90;;;;;;5107536;28;20761;-68
2023/08/04 00:45:39;;;;;;;5.50;3.07;;;15.40;99.90;;;;;;5107788;27;20421;-67
2023/08/04 00:48:06;;;;;;;5.20;3.20;;;15.50;99.90;;;;;;5106877;27;20415;-67
2023/08/04 00:50:34;;;;;;;8.40;3.80;;;15.40;99.90;;;;;;5106211;27;20442;-68
2023/08/04 00:53:02;;;;;;;5.78;3.33;;;15.40;99.90;;;;;;5117309;27;20427;-68
2023/08/04 00:55:30;;;;;;;6.88;3.10;;;15.40;99.90;;;;;;5106022;27;20452;-67
2023/08/04 00:57:57;;;;;;;7.55;3.15;;;15.40;99.90;;;;;;5104465;28;20399;-67
2023/08/04 01:00:24;;;;;;;6.32;3.08;;;15.40;99.90;;;;;;5117213;27;20414;-67
2023/08/04 01:02:50;;;;;;;5.38;3.50;;;15.30;99.90;;;;;;5108401;27;20410;-67
2023/08/04 01:05:18;;;;;;;6.70;3.30;;;15.30;99.90;;;;;;5102493;28;20518;-67
2023/08/04 01:07:53;;;;;;;6.90;3.28;;;15.30;99.90;;;;;;5116105;27;20437;-67
2023/08/04 01:10:27;;;;;;;3.60;3.20;;;15.30;99.90;;;;;;5120858;27;20406;-68
2023/08/04 01:13:00;;;;;;;6.65;3.10;;;15.30;99.90;;;;;;5101658;28;20420;-68
2023/08/04 01:15:28;;;;;;;7.07;3.53;;;15.30;99.90;;;;;;5106120;28;20424;-67
2023/08/04 01:17:56;;;;;;;6.45;3.60;;;15.30;99.90;;;;;;5106451;28;20431;-68
2023/08/04 01:20:23;;;;;;;10.95;4.20;;;15.30;99.90;;;;;;5104702;28;20428;-67
2023/08/04 01:22:51;;;;;;;5.70;4.00;;;15.30;99.90;;;;;;5106570;28;20400;-67
2023/08/04 01:25:18;;;;;;;8.63;4.10;;;15.30;99.90;;;;;;5105288;28;20415;-68
2023/08/04 01:27:49;;;;;;;6.93;3.47;;;15.30;99.90;;;;;;5105836;28;20414;-67
2023/08/04 01:30:18;;;;;;;9.80;3.90;;;15.30;99.90;;;;;;5105272;28;20510;-68
2023/08/04 01:32:45;;;;;;;6.75;3.90;;;15.30;99.90;;;;;;5103619;27;20599;-68
2023/08/04 01:35:12;;;;;;;6.63;3.58;;;15.30;99.90;;;;;;5101045;27;20424;-68
2023/08/04 01:37:38;;;;;;;5.30;3.27;;;15.30;99.90;;;;;;5105572;28;20880;-68
2023/08/04 01:40:08;;;;;;;4.43;3.40;;;15.30;99.90;;;;;;5106346;28;20412;-67
2023/08/04 01:42:35;;;;;;;8.07;3.45;;;15.30;99.90;;;;;;5105658;28;20400;-68
2023/08/04 01:45:02;;;;;;;6.53;3.88;;;15.30;99.90;;;;;;5105601;27;20436;-68
2023/08/04 01:47:29;;;;;;;4.80;3.27;;;15.30;99.90;;;;;;5104263;28;20594;-68
2023/08/04 01:49:55;;;;;;;8.47;3.67;;;15.30;99.90;;;;;;5102562;28;20428;-67
2023/08/04 01:52:23;;;;;;;6.07;3.07;;;15.30;99.90;;;;;;5105065;28;20424;-68
2023/08/04 01:54:50;;;;;;;9.57;3.30;;;15.30;99.90;;;;;;5105930;27;20444;-68
2023/08/04 01:57:18;;;;;;;6.37;2.87;;;15.20;99.90;;;;;;5105424;27;20936;-68
2023/08/04 01:59:45;;;;;;;6.80;3.10;;;15.20;99.90;;;;;;5103964;27;20460;-68
2023/08/04 02:02:11;;;;;;;5.63;3.00;;;15.10;99.90;;;;;;5099999;28;20425;-67
2023/08/04 02:04:38;;;;;;;6.53;3.50;;;15.10;99.90;;;;;;5107786;27;20480;-68
2023/08/04 02:07:05;;;;;;;6.95;3.85;;;15.10;99.90;;;;;;5112645;27;20615;-68
2023/08/04 02:09:33;;;;;;;5.10;3.30;;;15.00;99.90;;;;;;5105190;28;20408;-68
2023/08/04 02:12:00;;;;;;;7.15;3.08;;;15.00;99.90;;;;;;5105509;28;20424;-68
2023/08/04 02:14:28;;;;;;;8.25;3.67;;;15.00;99.90;;;;;;5105551;28;20450;-67
2023/08/04 02:16:55;;;;;;;8.75;4.10;;;15.00;99.90;;;;;;5103413;27;20517;-66
2023/08/04 02:19:22;;;;;;;8.43;3.90;;;14.90;99.90;;;;;;5113193;27;20778;-68
2023/08/04 02:21:49;;;;;;;8.38;4.30;;;14.90;99.90;;;;;;5100023;28;20797;-68
2023/08/04 02:24:16;;;;;;;7.78;3.40;;;14.90;99.90;;;;;;5104815;28;20522;-68
2023/08/04 02:26:44;;;;;;;7.60;3.85;;;14.80;99.90;;;;;;5104368;28;20415;-67
2023/08/04 02:29:11;;;;;;;6.95;4.10;;;14.80;99.90;;;;;;5104361;28;20440;-69
2023/08/04 02:31:39;;;;;;;7.13;4.13;;;14.80;99.90;;;;;;5103763;28;20419;-67
2023/08/04 02:34:06;;;;;;;5.97;3.90;;;14.70;99.90;;;;;;5100392;27;21182;-67
2023/08/04 02:36:33;;;;;;;6.28;3.97;;;14.70;99.90;;;;;;5115615;27;20436;-69
2023/08/04 02:39:00;;;;;;;8.70;4.00;;;14.70;99.90;;;;;;5109123;27;20408;-67
2023/08/04 02:41:26;;;;;;;8.43;3.97;;;14.70;99.90;;;;;;5096889;28;20774;-67
2023/08/04 02:43:53;;;;;;;8.73;4.40;;;14.70;99.90;;;;;;5096305;28;20449;-67
2023/08/04 02:46:22;;;;;;;6.63;3.83;;;14.80;99.90;;;;;;5100562;28;20435;-67
2023/08/04 02:48:50;;;;;;;6.70;4.30;;;14.70;99.90;;;;;;5106613;27;20454;-67
2023/08/04 02:51:17;;;;;;;6.03;4.10;;;14.70;99.90;;;;;;5104036;28;20790;-67
2023/08/04 02:53:46;;;;;;;9.57;4.60;;;14.70;99.90;;;;;;5104454;28;20428;-67
2023/08/04 02:56:14;;;;;;;7.13;4.03;;;14.70;99.90;;;;;;5116060;27;20985;-67
2023/08/04 02:58:42;;;;;;;7.65;4.60;;;14.70;99.90;;;;;;5106671;27;20839;-67
2023/08/04 03:01:09;;;;;;;7.72;4.60;;;14.60;99.90;;;;;;5105685;27;20424;-67
2023/08/04 03:03:36;;;;;;;6.80;4.40;;;14.60;99.90;;;;;;5103408;28;20424;-67
2023/08/04 03:06:04;;;;;;;7.28;4.60;;;14.60;99.90;;;;;;5103515;28;20422;-67
2023/08/04 03:08:32;;;;;;;9.75;4.25;;;14.60;99.90;;;;;;5103507;28;20472;-67
2023/08/04 03:10:59;;;;;;;6.53;4.32;;;14.60;99.90;;;;;;5104212;28;20415;-67
2023/08/04 03:13:26;;;;;;;7.13;4.20;;;14.60;99.90;;;;;;5104337;28;20517;-67
2023/08/04 03:15:58;;;;;;;10.00;4.80;;;14.60;99.90;;;;;;5097459;28;20424;-66
2023/08/04 03:18:25;;;;;;;6.90;4.97;;;14.60;99.90;;;;;;5097834;28;20429;-69
2023/08/04 03:20:52;;;;;;;6.90;4.30;;;14.70;99.90;;;;;;5108873;28;20667;-69
2023/08/04 03:23:21;;;;;;;8.73;4.80;;;14.70;99.90;;;;;;5117896;28;20497;-69
2023/08/04 03:25:48;;;;;;;10.82;5.30;;;14.70;99.90;;;;;;5104201;28;20439;-68
2023/08/04 03:28:15;;;;;;;8.98;5.25;;;14.60;99.90;;;;;;5103648;28;20404;-69
2023/08/04 03:30:42;;;;;;;8.70;5.10;;;14.60;99.90;;;;;;5103606;28;20450;-67
2023/08/04 03:33:09;;;;;;;7.63;5.00;;;14.60;99.90;;;;;;5100893;28;20481;-68
2023/08/04 03:35:35;;;;;;;6.55;4.60;;;14.60;99.90;;;;;;5108393;27;20474;-67
2023/08/04 03:38:03;;;;;;;9.88;5.05;;;14.60;99.90;;;;;;5107623;28;20798;-67
2023/08/04 03:40:31;;;;;;;8.45;5.15;;;14.50;99.90;;;;;;5109856;27;20529;-67
2023/08/04 03:42:58;;;;;;;8.50;5.28;;;14.50;99.90;;;;;;5108678;28;20482;-67
2023/08/04 03:45:25;;;;;;;10.38;5.80;;;14.50;99.90;;;;;;5107053;28;20883;-67
2023/08/04 03:47:52;;;;;;;10.80;5.10;;;14.40;99.90;;;;;;5108190;27;20404;-67
2023/08/04 03:50:18;;;;;;;8.70;5.00;;;14.40;99.90;;;;;;5100853;28;20458;-67
2023/08/04 03:52:45;;;;;;;10.40;5.50;;;14.40;99.90;;;;;;5104579;27;20431;-67
2023/08/04 03:55:12;;;;;;;8.55;5.80;;;14.40;99.90;;;;;;5107419;27;20432;-67
2023/08/04 03:57:40;;;;;;;9.32;5.43;;;14.40;99.90;;;;;;5107417;28;20526;-69
2023/08/04 04:00:08;;;;;;;8.65;5.60;;;14.40;99.90;;;;;;5105259;28;20462;-67
2023/08/04 04:02:35;;;;;;;10.43;5.53;;;14.40;99.90;;;;;;5115890;27;20410;-68
2023/08/04 04:05:02;;;;;;;11.93;5.90;;;14.40;99.90;;;;;;5109913;27;20416;-68
2023/08/04 04:07:29;;;;;;;9.13;5.50;;;14.40;99.90;;;;;;5108107;28;20928;-66
2023/08/04 04:09:56;;;;;;;8.20;5.57;;;14.40;99.90;;;;;;5115289;27;20412;-68
2023/08/04 04:12:22;;;;;;;9.43;5.03;;;14.40;99.90;;;;;;5107631;28;20436;-68
2023/08/04 04:14:50;;;;;;;9.50;5.50;;;14.40;99.90;;;;;;5109266;27;20437;-67
2023/08/04 04:17:17;;;;;;;9.55;5.80;;;14.40;99.90;;;;;;5107748;28;20857;-67
2023/08/04 04:19:44;;;;;;;6.00;5.30;;;14.40;99.90;;;;;;5106309;28;20454;-68
2023/08/04 04:22:11;;;;;;;9.88;5.55;;;14.50;99.90;;;;;;5118567;27;20408;-67
2023/08/04 04:24:37;;;;;;;10.10;5.60;;;14.50;99.90;;;;;;5114837;27;20881;-67
2023/08/04 04:27:05;;;;;;;11.40;6.00;;;14.60;99.90;;;;;;5110065;27;20412;-67
2023/08/04 04:29:32;;;;;;;10.25;5.95;;;14.60;99.90;;;;;;5106745;27;20423;-67
2023/08/04 04:32:00;;;;;;;10.25;5.35;;;14.60;99.90;;;;;;5115371;27;20423;-69
2023/08/04 04:34:27;;;;;;;8.85;5.80;;;14.70;99.90;;;;;;5105834;28;20428;-68
2023/08/04 04:36:54;;;;;;;11.85;6.55;;;14.70;99.90;;;;;;5106903;28;20434;-66
2023/08/04 04:39:21;;;;;;;8.90;5.63;;;14.70;99.90;;;;;;5113985;27;20510;-67
2023/08/04 04:41:48;;;;;;;8.18;6.15;;;14.80;99.90;;;;;;5112494;27;20914;-65
2023/08/04 04:44:15;;;;;;;12.73;5.97;;;14.80;99.90;;;;;;5102504;28;20429;-67
2023/08/04 04:46:41;;;;;;;9.68;5.85;;;14.80;99.90;;;;;;5104868;28;20420;-67
2023/08/04 04:49:09;;;;;;;9.60;6.30;;;14.80;99.90;;;;;;5106739;28;20440;-68
2023/08/04 04:51:36;;;;;;;9.80;6.00;;;14.80;99.90;;;;;;5106862;28;20788;-67
2023/08/04 04:54:03;;;;;;;7.60;5.43;;;14.80;99.90;;;;;;5106278;28;20480;-67
2023/08/04 04:56:29;;;;;;;8.90;6.32;;;14.80;99.90;;;;;;5113708;27;20415;-66
2023/08/04 04:58:56;;;;;;;10.63;6.10;;;14.90;99.90;;;;;;5105179;28;20445;-67
2023/08/04 05:01:23;;;;;;;7.53;5.80;;;14.90;99.90;;;;;;5112546;27;20940;-69
2023/08/04 05:03:49;;;;;;;8.68;5.82;;;14.90;99.90;;;;;;5112556;27;20428;-69
2023/08/04 05:06:18;;;;;;;11.73;5.80;;;14.90;99.90;;;;;;5106291;28;20794;-69
2023/08/04 05:08:44;;;;;;;9.35;6.10;;;15.00;99.90;;;;;;5106665;28;20435;-68
2023/08/04 05:11:11;;;;;;;9.15;5.70;;;15.00;99.90;;;;;;5100336;28;20813;-69
2023/08/04 05:13:38;;;;;;;8.10;5.78;;;15.10;99.90;;;;;;5097053;28;20422;-68
2023/08/04 05:16:05;;;;;;;8.50;5.97;;;15.10;99.90;;;;;;5108203;27;20438;-69
2023/08/04 05:18:32;;;;;;;12.30;6.18;;;15.10;99.90;;;;;;5103499;28;20863;-69
2023/08/04 05:20:58;;;;;;;9.18;5.40;;;15.20;99.90;;;;;;5106247;28;20409;-69
2023/08/04 05:23:27;;;;;;;11.80;6.30;;;15.30;99.90;;;;;;5107633;27;20914;-69
2023/08/04 05:25:53;;;;;;;9.57;6.20;;;15.30;99.90;;;;;;5106092;27;20442;-69
2023/08/04 05:28:22;;;;;;;8.55;5.60;;;15.40;99.90;;;;;;5099546;28;20420;-68
2023/08/04 05:30:49;;;;;;;8.18;5.78;;;15.40;99.90;;;;;;5111010;27;21487;-69
2023/08/04 05:33:16;;;;;;;6.70;5.25;;;15.50;99.90;;;;;;5111325;27;20431;-72
2023/08/04 05:35:45;;;;;;;7.63;5.28;;;15.50;99.90;;;;;;5106657;28;20419;-69
2023/08/04 05:38:12;;;;;;;8.20;5.30;;;15.50;99.90;;;;;;5108995;27;20731;-70
2023/08/04 05:40:44;;;;;;;9.40;5.80;;;15.50;99.90;;;;;;5117274;27;20490;-69
2023/08/04 05:43:11;;;;;;;10.82;5.40;;;15.60;99.90;;;;;;5108285;27;20451;-68
2023/08/04 05:45:39;;;;;;;10.93;5.40;;;15.60;99.90;;;;;;5104874;28;20926;-67
2023/08/04 05:48:06;;;;;;;9.80;5.43;;;15.70;99.90;;;;;;5103005;28;20427;-67
2023/08/04 05:50:33;;;;;;;9.40;5.95;;;15.70;99.90;;;;;;5101973;28;20408;-66
2023/08/04 05:53:00;;;;;;;10.40;5.50;;;15.70;99.90;;;;;;5105276;27;20435;-68
2023/08/04 05:55:26;;;;;;;7.80;5.67;;;15.80;99.90;;;;;;5099061;28;20527;-67
2023/08/04 05:57:56;;;;;;;10.30;5.90;;;15.80;99.90;;;;;;5100174;28;20443;-66
2023/08/04 06:00:23;;;;;;;11.40;5.47;;;15.80;99.90;;;;;;5104316;28;20492;-66
2023/08/04 06:02:49;;;;;;;9.70;5.20;;;15.80;99.90;;;;;;5100016;28;21826;-69
2023/08/04 06:05:16;;;;;;;10.48;6.43;;;15.90;99.90;;;;;;5121763;27;20421;-69
2023/08/04 06:07:43;;;;;;;9.68;5.20;;;15.90;99.90;;;;;;5105367;27;20415;-68
2023/08/04 06:10:10;;;;;;;9.00;5.45;;;15.90;99.90;;;;;;5103791;28;20424;-69
2023/08/04 06:12:37;;;;;;;7.17;4.73;;;15.90;99.90;;;;;;5103660;27;20428;-69
2023/08/04 06:15:06;;;;;;;9.43;5.55;;;15.90;99.90;;;;;;5104821;27;20515;-68
2023/08/04 06:17:33;;;;;;;9.20;5.38;;;15.90;99.90;;;;;;5104982;27;20428;-68
2023/08/04 06:20:00;;;;;;;8.45;5.30;;;15.90;99.90;;;;;;5119782;27;20428;-69
2023/08/04 06:22:27;;;;;;;7.32;6.00;;;15.90;99.90;;;;;;5103538;28;20527;-69
2023/08/04 06:24:53;;;;;;;7.80;5.60;;;15.90;99.90;;;;;;5105728;28;20507;-68
2023/08/04 06:27:20;;;;;;;10.48;5.63;;;15.90;99.90;;;;;;5102252;28;20442;-69
2023/08/04 06:29:47;;;;;;;10.37;5.97;;;15.90;99.90;;;;;;5092743;22;20476;-68
2023/08/04 06:32:15;;;;;;;10.43;6.22;;;16.00;99.90;;;;;;5064479;28;20423;-69
2023/08/04 06:34:41;;;;;;;11.60;6.13;;;16.00;99.90;;;;;;5067414;28;20434;-69
2023/08/04 06:37:08;;;;;;;8.67;5.90;;;16.00;99.90;;;;;;5069268;28;20502;-69
2023/08/04 06:39:35;;;;;;;8.13;5.38;;;16.10;99.90;;;;;;5068595;28;20411;-68
2023/08/04 06:42:02;;;;;;;7.25;5.43;;;16.20;99.90;;;;;;5062918;28;20412;-68
2023/08/04 06:44:29;;;;;;;9.20;5.40;;;16.20;99.90;;;;;;5070471;28;20634;-68
2023/08/04 06:46:55;;;;;;;9.47;5.90;;;16.30;99.90;;;;;;5073023;28;20428;-72
2023/08/04 06:49:24;;;;;;;9.02;5.53;;;16.30;99.90;;;;;;5071525;28;20494;-71
2023/08/04 06:51:50;;;;;;;11.13;5.45;;;16.40;99.90;;;;;;5067221;28;21585;-72
2023/08/04 06:54:17;;;;;;;8.30;4.90;;;16.40;99.90;;;;;;5066785;28;20969;-74
2023/08/04 06:56:44;;;;;;;7.00;5.30;;;16.50;99.90;;;;;;5067309;28;20431;-72
2023/08/04 06:59:11;;;;;;;9.60;5.68;;;16.50;99.90;;;;;;5067862;28;20408;-72
2023/08/04 07:01:38;;;;;;;8.68;5.13;;;16.60;99.90;;;;;;5062630;28;20782;-73
2023/08/04 07:04:05;;;;;;;8.10;5.22;;;16.70;99.90;;;;;;5070168;28;20423;-74
2023/08/04 07:06:33;;;;;;;7.55;5.70;;;16.80;99.90;;;;;;5069065;28;20422;-74
2023/08/04 07:09:00;;;;;;;6.03;4.97;;;16.80;99.90;;;;;;5081831;28;20423;-71
2023/08/04 07:11:27;;;;;;;8.40;6.00;;;16.80;99.90;;;;;;5075623;28;20435;-72
2023/08/04 07:13:54;;;;;;;6.00;4.90;;;16.80;99.90;;;;;;5070268;28;20436;-73
2023/08/04 07:16:21;;;;;;;8.60;5.00;;;16.80;99.90;;;;;;5076043;28;20409;-73
2023/08/04 07:18:47;;;;;;;8.90;4.90;;;16.80;99.90;;;;;;5070547;28;20792;-73
2023/08/04 07:21:15;;;;;;;10.38;4.70;;;16.80;99.90;;;;;;5072765;28;20424;-71
2023/08/04 07:23:43;;;;;;;11.32;5.30;;;16.80;99.90;;;;;;5062120;28;20905;-72
2023/08/04 07:26:10;;;;;;;8.13;4.68;;;16.80;99.90;;;;;;5060205;28;21437;-72
2023/08/04 07:28:37;;;;;;;10.52;5.53;;;16.80;99.90;;;;;;5061081;28;20427;-75
2023/08/04 07:31:04;;;;;;;10.10;4.80;;;16.90;99.90;;;;;;5070183;28;20423;-72
2023/08/04 07:33:31;;;;;;;11.00;4.90;;;16.90;99.90;;;;;;5063466;28;20435;-71
2023/08/04 07:35:59;;;;;;;8.68;5.35;;;16.90;99.90;;;;;;5063906;28;20935;-72
2023/08/04 07:38:28;;;;;;;8.50;5.40;;;17.00;99.90;;;;;;5061912;28;20456;-73
2023/08/04 07:40:56;;;;;;;8.20;5.30;;;17.10;99.90;;;;;;5065147;28;20419;-71
2023/08/04 07:43:23;;;;;;;8.40;5.40;;;17.20;99.90;;;;;;5067336;28;20440;-72
2023/08/04 07:45:50;;;;;;;7.75;5.50;;;17.20;99.90;;;;;;5067615;28;20435;-71
2023/08/04 07:48:17;;;;;;;7.32;5.22;;;17.30;99.90;;;;;;5060337;28;20968;-72
2023/08/04 07:50:47;;;;;;;8.40;5.00;;;17.40;99.90;;;;;;5069642;28;20423;-72
2023/08/04 07:53:13;;;;;;;10.32;6.35;;;17.50;99.90;;;;;;5065893;28;20908;-72
2023/08/04 07:55:40;;;;;;;7.50;5.40;;;17.50;99.90;;;;;;5066363;28;20438;-73
2023/08/04 07:58:08;;;;;;;7.15;5.30;;;17.40;99.90;;;;;;5081112;28;20432;-72
2023/08/04 08:00:35;;;;;;;10.20;5.90;;;17.50;99.90;;;;;;5069423;28;20427;-72
2023/08/04 08:03:02;;;;;;;8.63;6.00;;;17.60;99.90;;;;;;5067419;28;20441;-73
2023/08/04 08:05:29;;;;;;;8.10;5.90;;;17.70;99.90;;;;;;5068436;28;20411;-72
2023/08/04 08:07:56;;;;;;;7.70;5.32;;;17.70;99.90;;;;;;5065884;28;20431;-72
2023/08/04 08:10:22;;;;;;;8.23;5.95;;;17.70;99.90;;;;;;5065008;28;20763;-68
2023/08/04 08:12:49;;;;;;;7.00;5.20;;;17.80;99.90;;;;;;5076574;28;20418;-72
2023/08/04 08:15:17;;;;;;;8.18;5.22;;;18.00;99.90;;;;;;5066662;28;20434;-72
2023/08/04 08:17:44;;;;;;;8.65;5.20;;;18.20;99.90;;;;;;5060479;28;20436;-73
2023/08/04 08:20:11;;;;;;;7.88;5.10;;;18.50;99.90;;;;;;5062997;28;20428;-72
2023/08/04 08:22:38;;;;;;;8.70;4.70;;;18.80;99.90;;;;;;5062050;28;20435;-71
2023/08/04 08:25:05;;;;;;;5.10;4.40;;;19.00;99.20;;;;;;5063273;28;20438;-70
2023/08/04 08:27:32;;;;;;;6.45;5.03;;;19.10;98.20;;;;;;5072705;28;20906;-70
2023/08/04 08:29:59;;;;;;;6.07;5.10;;;19.00;96.80;;;;;;5067742;28;20432;-70
2023/08/04 08:32:27;;;;;;;8.95;5.30;;;18.90;97.30;;;;;;5075739;28;20429;-69
2023/08/04 08:34:53;;;;;;;8.50;5.50;;;18.80;98.20;;;;;;5062250;28;20427;-68
2023/08/04 08:37:20;;;;;;;7.57;4.93;;;18.70;97.10;;;;;;5066447;28;20980;-69
2023/08/04 08:39:47;;;;;;;5.93;4.70;;;18.60;97.30;;;;;;5066753;28;20428;-69
2023/08/04 08:42:14;;;;;;;6.87;5.93;;;18.40;97.50;;;;;;5065694;28;20485;-69
2023/08/04 08:44:40;;;;;;;7.07;4.55;;;18.30;98.40;;;;;;5068564;28;20431;-69
2023/08/04 08:47:08;;;;;;;9.13;4.63;;;18.30;98.80;;;;;;5068231;28;20431;-69
2023/08/04 08:49:41;;;;;;;5.65;4.40;;;18.40;97.80;;;;;;5070559;28;20404;-69
2023/08/04 08:52:09;;;;;;;7.70;5.10;;;18.40;98.00;;;;;;5063836;28;20794;-68
2023/08/04 08:54:36;;;;;;;5.80;4.90;;;18.50;98.40;;;;;;5067243;28;20424;-69
2023/08/04 08:57:03;;;;;;;7.37;4.63;;;18.50;98.80;;;;;;5064343;28;20429;-69
2023/08/04 08:59:32;;;;;;;5.40;4.20;;;18.50;99.10;;;;;;5063234;28;20430;-69
2023/08/04 09:01:59;;;;;;;7.90;4.10;;;18.60;99.00;;;;;;5065666;28;20491;-69
2023/08/04 09:04:26;;;;;;;6.03;4.30;;;18.70;96.70;;;;;;5065901;28;20478;-70
2023/08/04 09:06:56;;;;;;;4.90;4.00;;;18.60;96.60;;;;;;5069785;28;20733;-70
2023/08/04 09:09:23;;;;;;;6.63;4.47;;;18.40;97.10;;;;;;5069383;28;20423;-70
2023/08/04 09:11:50;;;;;;;7.35;4.28;;;18.30;97.40;;;;;;5066529;28;20443;-76
2023/08/04 09:14:17;;;;;;;5.40;3.92;;;18.20;98.00;;;;;;5065751;28;20431;-75
2023/08/04 09:16:44;;;;;;;5.72;5.15;;;18.20;98.70;;;;;;5062327;28;20589;-74
2023/08/04 09:19:11;;;;;;;8.85;5.15;;;18.30;99.10;;;;;;5067513;28;20434;-71
2023/08/04 09:21:38;;;;;;;8.13;5.55;;;18.20;98.70;;;;;;5066861;28;20794;-71
2023/08/04 09:24:10;;;;;;;7.65;5.18;;;18.20;98.60;;;;;;5069881;28;20423;-72
2023/08/04 09:26:42;;;;;;;7.60;5.05;;;18.10;98.80;;;;;;5064158;28;20500;-71
2023/08/04 09:29:09;;;;;;;7.45;5.30;;;18.10;99.40;;;;;;5066184;28;20780;-74
2023/08/04 09:31:36;;;;;;;6.77;4.20;;;18.10;99.90;;;;;;5068087;28;20430;-71
2023/08/04 09:34:04;;;;;;;6.93;4.40;;;18.10;99.90;;;;;;5065455;28;20483;-73
2023/08/04 09:36:32;;;;;;;6.65;4.70;;;18.10;99.80;;;;;;5068513;28;20451;-71
2023/08/04 09:39:03;;;;;;;7.07;5.25;;;18.10;99.90;;;;;;5081207;28;20416;-70
2023/08/04 09:41:34;;;;;;;6.15;5.25;;;18.20;99.50;;;;;;5068109;28;20941;-71
2023/08/04 09:44:05;;;;;;;5.90;4.80;;;18.20;99.70;;;;;;5067970;28;20426;-71
2023/08/04 09:46:32;;;;;;;7.85;5.00;;;18.20;99.50;;;;;;5065181;28;20438;-71
2023/08/04 09:48:59;;;;;;;6.80;5.30;;;18.20;99.50;;;;;;5065727;28;20620;-73
2023/08/04 09:51:26;;;;;;;5.60;3.70;;;18.20;99.80;;;;;;5066362;28;20431;-73
2023/08/04 09:53:55;;;;;;;6.25;4.90;;;18.20;99.40;;;;;;5080235;28;20455;-72
2023/08/04 09:56:25;;;;;;;5.85;4.18;;;18.20;99.90;;;;;;5079505;28;20423;-73
2023/08/04 09:58:53;;;;;;;6.50;4.20;;;18.30;99.90;;;;;;5089381;28;20456;-72
2023/08/04 10:01:20;;;;;;;5.15;3.70;;;18.30;99.90;;;;;;5079289;28;20412;-72
2023/08/04 10:03:51;;;;;;;6.97;4.18;;;18.30;98.80;;;;;;5078022;28;20418;-71
2023/08/04 10:06:18;;;;;;;4.90;4.18;;;18.30;99.20;;;;;;5078221;28;20495;-71
2023/08/04 10:08:46;;;;;;;4.65;3.60;;;18.30;99.70;;;;;;5067834;28;20489;-71
2023/08/04 10:11:12;;;;;;;8.63;4.10;;;18.40;99.90;;;;;;5068974;28;20723;-72
2023/08/04 10:13:42;;;;;;;6.35;3.50;;;18.50;98.30;;;;;;5068066;28;20917;-71
2023/08/04 10:16:12;;;;;;;7.28;3.95;;;18.60;97.80;;;;;;5072118;28;20511;-73
2023/08/04 10:18:50;;;;;;;7.30;4.50;;;18.60;97.60;;;;;;5069752;28;20761;-71
2023/08/04 10:21:18;;;;;;;5.18;3.80;;;18.60;98.10;;;;;;5074606;28;20426;-71
2023/08/04 10:23:45;;;;;;;6.20;3.90;;;18.70;97.10;;;;;;5072091;28;20485;-72
2023/08/04 10:26:13;;;;;;;4.03;3.60;;;18.70;97.80;;;;;;5069312;28;20913;-72
2023/08/04 10:29:01;;;;;;;8.10;4.10;;;18.70;98.30;;;;;;5069033;28;20407;-73
2023/08/04 10:31:45;;;;;;;4.97;3.97;;;18.80;98.20;;;;;;5070298;28;20400;-71
2023/08/04 10:34:16;;;;;;;5.30;3.50;;;18.90;97.50;;;;;;5067725;28;20411;-72
2023/08/04 10:36:55;;;;;;;5.57;3.50;;;19.00;96.70;;;;;;5068261;28;21059;-72
2023/08/04 10:39:29;;;;;;;4.47;3.03;;;19.10;95.10;;;;;;5072642;28;20817;-71
2023/08/04 10:41:56;;;;;;;5.77;3.20;;;19.20;94.90;;;;;;5068019;28;20496;-71
2023/08/04 10:44:25;;;;;;;3.08;2.50;;;19.20;94.60;;;;;;5078246;28;20418;-73
2023/08/04 10:47:00;;;;;;;3.92;3.17;;;19.30;93.50;;;;;;5085344;28;20412;-71
2023/08/04 10:49:27;;;;;;;4.67;2.87;;;19.30;93.70;;;;;;5072603;28;20920;-71
2023/08/04 10:51:54;;;;;;;4.13;2.72;;;19.50;93.30;;;;;;5064709;28;20431;-71
2023/08/04 10:54:21;;;;;;;4.05;3.13;;;19.50;92.90;;;;;;5068129;28;20425;-71
2023/08/04 10:56:47;;;;;;;6.30;3.40;;;19.50;91.10;;;;;;5075745;28;20427;-71
2023/08/04 10:59:14;;;;;;;4.40;4.00;;;19.50;94.40;;;;;;5074889;28;20407;-70
2023/08/04 11:01:41;;;;;;;6.97;4.30;;;19.30;95.50;;;;;;5065021;28;20463;-71
2023/08/04 11:04:11;;;;;;;7.50;4.03;;;19.00;96.70;;;;;;5071765;28;20614;-70
2023/08/04 11:06:38;;;;;;;4.47;3.95;;;18.70;98.00;;;;;;5066920;28;20459;-71
2023/08/04 11:09:05;;;;;;;6.03;4.03;;;18.40;99.30;;;;;;5070154;28;20430;-70
2023/08/04 11:11:32;;;;;;;5.10;4.30;;;18.20;99.90;;;;;;5065177;28;20431;-70
2023/08/04 11:13:59;;;;;;;5.80;4.60;;;18.10;99.90;;;;;;5067517;28;20419;-71
2023/08/04 11:16:26;;;;;;;5.63;4.17;;;18.10;99.90;;;;;;5069390;28;20423;-71
2023/08/04 11:18:53;;;;;;;5.37;4.20;;;18.10;99.90;;;;;;5068594;28;20775;-72
2023/08/04 11:21:21;;;;;;;6.72;4.15;;;18.10;99.90;;;;;;5064202;28;20828;-71
2023/08/04 11:23:49;;;;;;;5.80;4.10;;;18.20;99.90;;;;;;5067094;28;20408;-71
2023/08/04 11:26:16;;;;;;;6.05;3.95;;;18.30;99.90;;;;;;5065089;28;20648;-71
2023/08/04 11:28:43;;;;;;;7.20;4.30;;;18.40;99.90;;;;;;5068543;28;20415;-69
2023/08/04 11:31:10;;;;;;;6.43;4.13;;;18.60;99.90;;;;;;5074306;28;20427;-69
2023/08/04 11:33:44;;;;;;;5.38;4.13;;;18.70;99.90;;;;;;5071040;28;20435;-72
2023/08/04 11:36:11;;;;;;;4.97;4.30;;;18.80;99.90;;;;;;5057087;28;20424;-70
2023/08/04 11:38:39;;;;;;;5.77;4.80;;;19.00;99.90;;;;;;5068160;28;20442;-71
2023/08/04 11:41:10;;;;;;;4.32;3.75;;;19.10;99.90;;;;;;5066814;28;20435;-70
2023/08/04 11:43:37;;;;;;;6.60;3.70;;;19.30;99.90;;;;;;5063589;28;20845;-72
2023/08/04 11:46:06;;;;;;;4.65;4.00;;;19.40;97.20;;;;;;5053542;28;20412;-70
2023/08/04 11:48:35;;;;;;;6.17;3.80;;;19.60;97.80;;;;;;5066868;28;20489;-72
2023/08/04 11:51:02;;;;;;;4.53;3.20;;;19.90;96.40;;;;;;5062505;28;20420;-70
2023/08/04 11:53:29;;;;;;;4.47;3.22;;;20.00;95.70;;;;;;5064620;28;20446;-71
2023/08/04 11:55:59;;;;;;;4.43;3.40;;;20.30;94.20;;;;;;5071503;28;20419;-76
2023/08/04 11:58:34;;;;;;;4.10;2.63;;;20.70;94.40;;;;;;5072957;28;20443;-74
2023/08/04 12:01:01;;;;;;;3.67;2.80;;;21.10;93.00;;;;;;5075879;28;20443;-74
2023/08/04 12:03:42;;;;;;;4.78;3.15;;;21.30;92.40;;;;;;5077871;28;20427;-75
2023/08/04 12:06:14;;;;;;;3.80;2.97;;;21.50;92.60;;;;;;5068834;28;20424;-76
2023/08/04 12:08:50;;;;;;;3.30;3.00;;;21.60;91.60;;;;;;5071503;28;20468;-73
2023/08/04 12:11:20;;;;;;;4.32;3.10;;;21.80;91.60;;;;;;5064947;28;20431;-77
2023/08/04 12:13:47;;;;;;;3.60;2.60;;;21.90;91.50;;;;;;5069175;28;20477;-74
2023/08/04 12:16:14;;;;;;;4.22;2.80;;;22.10;91.20;;;;;;5069177;28;20428;-75
2023/08/04 12:18:41;;;;;;;3.30;2.50;;;22.20;90.60;;;;;;5071166;28;20403;-76
2023/08/04 12:21:10;;;;;;;4.57;2.38;;;22.30;88.00;;;;;;5067865;28;20566;-74
2023/08/04 12:23:37;;;;;;;4.45;3.00;;;22.30;86.40;;;;;;5073742;28;20821;-73
2023/08/04 12:26:03;;;;;;;4.05;2.60;;;22.30;86.90;;;;;;5067205;28;20432;-74
2023/08/04 12:30:58;;;;;;;3.40;2.30;;;22.40;83.90;;;;;;5103404;22;20442;-67
2023/08/04 12:33:25;;;;;;;4.63;3.10;;;22.40;83.80;;;;;;5077502;28;21068;-71
2023/08/04 12:35:52;;;;;;;4.75;2.78;;;22.50;86.30;;;;;;5086962;28;20433;-68
2023/08/04 12:38:19;;;;;;;4.03;2.60;;;22.60;86.40;;;;;;5083425;28;20451;-68
2023/08/04 12:40:48;;;;;;;2.92;2.60;;;22.70;86.40;;;;;;5057605;28;20428;-67
2023/08/04 12:43:14;;;;;;;4.30;2.50;;;22.70;80.70;;;;;;5060094;28;20438;-68
2023/08/04 12:45:41;;;;;;;5.15;2.55;;;22.90;78.90;;;;;;5049803;28;20953;-66
2023/08/04 12:48:09;;;;;;;2.90;2.60;;;23.00;78.20;;;;;;5059823;28;20416;-73
2023/08/04 12:50:36;;;;;;;3.77;2.60;;;22.70;78.90;;;;;;5058254;28;20417;-73
2023/08/04 12:53:03;;;;;;;2.95;2.30;;;22.40;80.00;;;;;;5068085;28;20422;-73